sensor_id;sensor_type;location;lat;lon;timestamp;pressure;altitude;pressure_sealevel;temperature;humidity
22333;BME280;11334;36.986;-121.936;2023-03-15T00:00:42;100508.19;;;15.42;100.00
22333;BME280;11334;36.986;-121.936;2023-03-15T00:03:09;100504.69;;;15.41;100.00
22333;BME280;11334;36.986;-121.936;2023-03-15T00:05:36;100519.81;;;15.34;100.00
22333;BME280;11334;36.986;-121.936;2023-03-15T00:08:02;100517.38;;;15.33;100.00
22333;BME280;11334;36.986;-121.936;2023-03-15T00:10:29;100511.78;;;15.28;100.00
22333;BME280;11334;36.986;-121.936;2023-03-15T00:12:55;100496.75;;;15.27;100.00
22333;BME280;11334;36.986;-121.936;2023-03-15T00:15:21;100509.75;;;15.30;100.00
22333;BME280;11334;36.986;-121.936;2023-03-15T00:17:47;100502.34;;;15.32;100.00
22333;BME280;11334;36.986;-121.936;2023-03-15T00:20:14;100506.44;;;15.28;100.00
22333;BME280;11334;36.986;-121.936;2023-03-15T00:22:41;100507.56;;;15.19;100.00
22333;BME280;11334;36.986;-121.936;2023-03-15T00:25:11;100510.44;;;15.18;100.00
22333;BME280;11334;36.986;-121.936;2023-03-15T00:27:38;100506.94;;;15.17;100.00
22333;BME280;11334;36.986;-121.936;2023-03-15T00:30:04;100499.97;;;15.16;100.00
22333;BME280;11334;36.986;-121.936;2023-03-15T00:32:31;100507.56;;;15.19;100.00
22333;BME280;11334;36.986;-121.936;2023-03-15T00:34:57;100507.78;;;15.18;100.00
22333;BME280;11334;36.986;-121.936;2023-03-15T00:37:23;100515.31;;;15.14;100.00
22333;BME280;11334;36.986;-121.936;2023-03-15T00:39:50;100528.50;;;15.16;100.00
22333;BME280;11334;36.986;-121.936;2023-03-15T00:42:20;100527.69;;;15.15;100.00
22333;BME280;11334;36.986;-121.936;2023-03-15T00:44:46;100529.97;;;15.18;100.00
22333;BME280;11334;36.986;-121.936;2023-03-15T00:47:14;100528.50;;;15.16;100.00
22333;BME280;11334;36.986;-121.936;2023-03-15T00:49:40;100517.75;;;15.09;100.00
22333;BME280;11334;36.986;-121.936;2023-03-15T00:52:06;100521.06;;;15.11;100.00
22333;BME280;11334;36.986;-121.936;2023-03-15T00:54:33;100532.84;;;15.02;100.00
22333;BME280;11334;36.986;-121.936;2023-03-15T00:57:00;100532.59;;;14.97;100.00
22333;BME280;11334;36.986;-121.936;2023-03-15T00:59:31;100537.63;;;14.72;100.00
22333;BME280;11334;36.986;-121.936;2023-03-15T01:02:01;100545.38;;;14.67;100.00
22333;BME280;11334;36.986;-121.936;2023-03-15T01:04:28;100546.72;;;14.77;100.00
22333;BME280;11334;36.986;-121.936;2023-03-15T01:06:57;100549.84;;;14.81;100.00
22333;BME280;11334;36.986;-121.936;2023-03-15T01:09:24;100549.59;;;14.76;100.00
22333;BME280;11334;36.986;-121.936;2023-03-15T01:11:50;100576.63;;;14.73;100.00
22333;BME280;11334;36.986;-121.936;2023-03-15T01:14:16;100574.78;;;14.73;100.00
22333;BME280;11334;36.986;-121.936;2023-03-15T01:16:44;100568.94;;;14.63;100.00
22333;BME280;11334;36.986;-121.936;2023-03-15T01:19:12;100570.13;;;14.61;100.00
22333;BME280;11334;36.986;-121.936;2023-03-15T01:21:39;100554.84;;;14.55;100.00
22333;BME280;11334;36.986;-121.936;2023-03-15T01:24:05;100569.47;;;14.59;100.00
22333;BME280;11334;36.986;-121.936;2023-03-15T01:26:32;100572.03;;;14.67;100.00
22333;BME280;11334;36.986;-121.936;2023-03-15T01:28:58;100583.34;;;14.69;100.00
22333;BME280;11334;36.986;-121.936;2023-03-15T01:31:27;100579.66;;;14.70;100.00
22333;BME280;11334;36.986;-121.936;2023-03-15T01:33:56;100570.94;;;14.61;100.00
22333;BME280;11334;36.986;-121.936;2023-03-15T01:36:22;100591.72;;;14.66;100.00
22333;BME280;11334;36.986;-121.936;2023-03-15T01:38:49;100579.38;;;14.65;100.00
22333;BME280;11334;36.986;-121.936;2023-03-15T01:41:17;100590.97;;;14.72;100.00
22333;BME280;11334;36.986;-121.936;2023-03-15T01:43:44;100599.78;;;14.72;100.00
22333;BME280;11334;36.986;-121.936;2023-03-15T01:46:20;100596.78;;;14.75;100.00
22333;BME280;11334;36.986;-121.936;2023-03-15T01:49:04;100590.53;;;14.68;100.00
22333;BME280;11334;36.986;-121.936;2023-03-15T01:52:25;100606.84;;;14.80;100.00
22333;BME280;11334;36.986;-121.936;2023-03-15T01:57:40;100613.78;;;14.60;100.00
22333;BME280;11334;36.986;-121.936;2023-03-15T02:00:13;100623.72;;;14.66;100.00
22333;BME280;11334;36.986;-121.936;2023-03-15T02:02:54;100627.88;;;14.68;100.00
22333;BME280;11334;36.986;-121.936;2023-03-15T02:05:26;100625.00;;;14.70;100.00
22333;BME280;11334;36.986;-121.936;2023-03-15T02:07:54;100623.34;;;14.69;100.00
22333;BME280;11334;36.986;-121.936;2023-03-15T02:10:30;100622.69;;;14.67;100.00
22333;BME280;11334;36.986;-121.936;2023-03-15T02:12:58;100610.56;;;14.64;100.00
22333;BME280;11334;36.986;-121.936;2023-03-15T02:15:25;100625.63;;;14.72;100.00
22333;BME280;11334;36.986;-121.936;2023-03-15T02:17:51;100630.16;;;14.71;100.00
22333;BME280;11334;36.986;-121.936;2023-03-15T02:20:35;100638.97;;;14.72;100.00
22333;BME280;11334;36.986;-121.936;2023-03-15T02:23:07;100630.97;;;14.72;100.00
22333;BME280;11334;36.986;-121.936;2023-03-15T02:28:21;100642.47;;;14.72;100.00
22333;BME280;11334;36.986;-121.936;2023-03-15T02:30:49;100633.91;;;14.62;100.00
22333;BME280;11334;36.986;-121.936;2023-03-15T02:33:25;100651.50;;;14.71;100.00
22333;BME280;11334;36.986;-121.936;2023-03-15T02:36:07;100646.81;;;14.73;100.00
22333;BME280;11334;36.986;-121.936;2023-03-15T02:38:34;100651.88;;;14.68;100.00
22333;BME280;11334;36.986;-121.936;2023-03-15T02:41:00;100653.34;;;14.71;100.00
22333;BME280;11334;36.986;-121.936;2023-03-15T02:43:29;100657.84;;;14.70;100.00
22333;BME280;11334;36.986;-121.936;2023-03-15T02:45:56;100650.41;;;14.66;100.00
22333;BME280;11334;36.986;-121.936;2023-03-15T02:48:23;100658.19;;;14.67;100.00
22333;BME280;11334;36.986;-121.936;2023-03-15T02:50:49;100654.69;;;14.67;100.00
22333;BME280;11334;36.986;-121.936;2023-03-15T02:53:15;100660.59;;;14.62;100.00
22333;BME280;11334;36.986;-121.936;2023-03-15T02:55:41;100654.53;;;14.54;100.00
22333;BME280;11334;36.986;-121.936;2023-03-15T02:58:08;100658.22;;;14.53;100.00
22333;BME280;11334;36.986;-121.936;2023-03-15T03:00:34;100667.31;;;14.58;100.00
22333;BME280;11334;36.986;-121.936;2023-03-15T03:03:00;100656.44;;;14.60;100.00
22333;BME280;11334;36.986;-121.936;2023-03-15T03:05:27;100669.34;;;14.56;100.00
22333;BME280;11334;36.986;-121.936;2023-03-15T03:07:53;100659.88;;;14.54;100.00
22333;BME280;11334;36.986;-121.936;2023-03-15T03:10:21;100649.63;;;14.57;100.00
22333;BME280;11334;36.986;-121.936;2023-03-15T03:12:47;100648.09;;;14.49;100.00
22333;BME280;11334;36.986;-121.936;2023-03-15T03:15:18;100644.31;;;14.57;100.00
22333;BME280;11334;36.986;-121.936;2023-03-15T03:17:45;100638.16;;;14.57;100.00
22333;BME280;11334;36.986;-121.936;2023-03-15T03:20:15;100633.75;;;14.50;100.00
22333;BME280;11334;36.986;-121.936;2023-03-15T03:22:41;100649.47;;;14.45;100.00
22333;BME280;11334;36.986;-121.936;2023-03-15T03:25:10;100648.47;;;14.46;100.00
22333;BME280;11334;36.986;-121.936;2023-03-15T03:27:37;100664.53;;;14.52;100.00
22333;BME280;11334;36.986;-121.936;2023-03-15T03:30:06;100675.75;;;14.48;100.00
22333;BME280;11334;36.986;-121.936;2023-03-15T03:32:33;100677.78;;;14.46;100.00
22333;BME280;11334;36.986;-121.936;2023-03-15T03:34:59;100677.97;;;14.44;100.00
22333;BME280;11334;36.986;-121.936;2023-03-15T03:37:25;100675.84;;;14.40;100.00
22333;BME280;11334;36.986;-121.936;2023-03-15T03:39:52;100680.72;;;14.36;100.00
22333;BME280;11334;36.986;-121.936;2023-03-15T03:42:18;100681.53;;;14.37;100.00
22333;BME280;11334;36.986;-121.936;2023-03-15T03:44:44;100670.34;;;14.41;100.00
22333;BME280;11334;36.986;-121.936;2023-03-15T03:47:10;100669.31;;;14.42;100.00
22333;BME280;11334;36.986;-121.936;2023-03-15T03:49:37;100678.69;;;14.52;100.00
22333;BME280;11334;36.986;-121.936;2023-03-15T03:52:03;100676.94;;;14.45;100.00
22333;BME280;11334;36.986;-121.936;2023-03-15T03:54:29;100676.88;;;14.39;100.00
22333;BME280;11334;36.986;-121.936;2023-03-15T03:56:56;100670.06;;;14.36;100.00
22333;BME280;11334;36.986;-121.936;2023-03-15T03:59:23;100692.84;;;14.39;100.00
22333;BME280;11334;36.986;-121.936;2023-03-15T04:01:49;100696.50;;;14.38;100.00
22333;BME280;11334;36.986;-121.936;2023-03-15T04:04:16;100693.84;;;14.38;100.00
22333;BME280;11334;36.986;-121.936;2023-03-15T04:06:42;100702.41;;;14.33;100.00
22333;BME280;11334;36.986;-121.936;2023-03-15T04:09:14;100670.84;;;14.22;100.00
22333;BME280;11334;36.986;-121.936;2023-03-15T04:11:41;100694.13;;;14.28;100.00
22333;BME280;11334;36.986;-121.936;2023-03-15T04:14:12;100700.47;;;14.27;100.00
22333;BME280;11334;36.986;-121.936;2023-03-15T04:16:39;100686.03;;;14.22;100.00
22333;BME280;11334;36.986;-121.936;2023-03-15T04:19:06;100714.97;;;14.25;100.00
22333;BME280;11334;36.986;-121.936;2023-03-15T04:21:33;100715.50;;;14.21;100.00
22333;BME280;11334;36.986;-121.936;2023-03-15T04:24:00;100722.69;;;14.20;100.00
22333;BME280;11334;36.986;-121.936;2023-03-15T04:26:27;100698.50;;;14.07;100.00
22333;BME280;11334;36.986;-121.936;2023-03-15T04:28:55;100717.34;;;14.20;100.00
22333;BME280;11334;36.986;-121.936;2023-03-15T04:31:22;100722.31;;;14.23;100.00
22333;BME280;11334;36.986;-121.936;2023-03-15T04:33:55;100713.88;;;14.20;100.00
22333;BME280;11334;36.986;-121.936;2023-03-15T04:36:21;100718.25;;;14.13;100.00
22333;BME280;11334;36.986;-121.936;2023-03-15T04:38:49;100727.78;;;14.07;100.00
22333;BME280;11334;36.986;-121.936;2023-03-15T04:41:16;100718.88;;;13.92;100.00
22333;BME280;11334;36.986;-121.936;2023-03-15T04:43:43;100730.63;;;13.84;100.00
22333;BME280;11334;36.986;-121.936;2023-03-15T04:46:09;100745.47;;;13.78;100.00
22333;BME280;11334;36.986;-121.936;2023-03-15T04:48:36;100753.34;;;13.72;100.00
22333;BME280;11334;36.986;-121.936;2023-03-15T04:51:02;100755.72;;;13.67;100.00
22333;BME280;11334;36.986;-121.936;2023-03-15T04:53:28;100727.53;;;13.50;100.00
22333;BME280;11334;36.986;-121.936;2023-03-15T04:55:55;100744.09;;;13.60;100.00
22333;BME280;11334;36.986;-121.936;2023-03-15T04:58:21;100746.22;;;13.42;100.00
22333;BME280;11334;36.986;-121.936;2023-03-15T05:00:47;100724.66;;;13.29;100.00
22333;BME280;11334;36.986;-121.936;2023-03-15T05:03:14;100744.56;;;13.33;99.65
22333;BME280;11334;36.986;-121.936;2023-03-15T05:05:40;100743.66;;;13.19;100.00
22333;BME280;11334;36.986;-121.936;2023-03-15T05:08:06;100763.81;;;13.13;100.00
22333;BME280;11334;36.986;-121.936;2023-03-15T05:10:32;100769.31;;;13.04;100.00
22333;BME280;11334;36.986;-121.936;2023-03-15T05:12:59;100777.00;;;12.91;100.00
22333;BME280;11334;36.986;-121.936;2023-03-15T05:15:25;100793.97;;;12.82;100.00
22333;BME280;11334;36.986;-121.936;2023-03-15T05:17:52;100789.81;;;12.80;100.00
22333;BME280;11334;36.986;-121.936;2023-03-15T05:20:20;100791.66;;;12.71;100.00
22333;BME280;11334;36.986;-121.936;2023-03-15T05:22:47;100810.75;;;12.67;100.00
22333;BME280;11334;36.986;-121.936;2023-03-15T05:25:13;100806.13;;;12.61;100.00
22333;BME280;11334;36.986;-121.936;2023-03-15T05:27:40;100822.56;;;12.64;100.00
22333;BME280;11334;36.986;-121.936;2023-03-15T05:30:07;100826.69;;;12.67;100.00
22333;BME280;11334;36.986;-121.936;2023-03-15T05:32:33;100818.72;;;12.67;100.00
22333;BME280;11334;36.986;-121.936;2023-03-15T05:35:04;100827.06;;;12.56;100.00
22333;BME280;11334;36.986;-121.936;2023-03-15T05:37:31;100829.53;;;12.50;100.00
22333;BME280;11334;36.986;-121.936;2023-03-15T05:39:58;100822.25;;;12.44;100.00
22333;BME280;11334;36.986;-121.936;2023-03-15T05:42:26;100815.09;;;12.44;100.00
22333;BME280;11334;36.986;-121.936;2023-03-15T05:44:52;100806.97;;;12.38;100.00
22333;BME280;11334;36.986;-121.936;2023-03-15T05:47:19;100821.75;;;12.40;100.00
22333;BME280;11334;36.986;-121.936;2023-03-15T05:49:46;100829.41;;;12.43;100.00
22333;BME280;11334;36.986;-121.936;2023-03-15T05:52:12;100844.50;;;12.43;100.00
22333;BME280;11334;36.986;-121.936;2023-03-15T05:54:38;100850.66;;;12.43;100.00
22333;BME280;11334;36.986;-121.936;2023-03-15T05:57:04;100854.63;;;12.39;100.00
22333;BME280;11334;36.986;-121.936;2023-03-15T05:59:31;100852.47;;;12.43;100.00
22333;BME280;11334;36.986;-121.936;2023-03-15T06:01:57;100857.47;;;12.38;99.36
22333;BME280;11334;36.986;-121.936;2023-03-15T06:04:23;100830.03;;;12.14;98.36
22333;BME280;11334;36.986;-121.936;2023-03-15T06:06:50;100863.06;;;12.19;98.98
22333;BME280;11334;36.986;-121.936;2023-03-15T06:09:17;100855.09;;;12.19;100.00
22333;BME280;11334;36.986;-121.936;2023-03-15T06:11:44;100867.56;;;12.11;100.00
22333;BME280;11334;36.986;-121.936;2023-03-15T06:14:10;100865.53;;;11.97;100.00
22333;BME280;11334;36.986;-121.936;2023-03-15T06:16:36;100871.66;;;11.90;100.00
22333;BME280;11334;36.986;-121.936;2023-03-15T06:19:02;100890.25;;;11.98;100.00
22333;BME280;11334;36.986;-121.936;2023-03-15T06:21:29;100885.47;;;12.01;100.00
22333;BME280;11334;36.986;-121.936;2023-03-15T06:23:55;100872.44;;;11.82;100.00
22333;BME280;11334;36.986;-121.936;2023-03-15T06:26:21;100887.69;;;11.72;100.00
22333;BME280;11334;36.986;-121.936;2023-03-15T06:28:48;100900.94;;;11.72;100.00
22333;BME280;11334;36.986;-121.936;2023-03-15T06:31:14;100884.69;;;11.68;100.00
22333;BME280;11334;36.986;-121.936;2023-03-15T06:33:40;100891.63;;;11.68;100.00
22333;BME280;11334;36.986;-121.936;2023-03-15T06:36:07;100891.81;;;11.67;100.00
22333;BME280;11334;36.986;-121.936;2023-03-15T06:38:33;100896.78;;;11.62;100.00
22333;BME280;11334;36.986;-121.936;2023-03-15T06:40:59;100897.81;;;11.69;100.00
22333;BME280;11334;36.986;-121.936;2023-03-15T06:43:26;100905.44;;;11.72;100.00
22333;BME280;11334;36.986;-121.936;2023-03-15T06:45:53;100907.75;;;11.75;100.00
22333;BME280;11334;36.986;-121.936;2023-03-15T06:48:20;100914.22;;;11.72;100.00
22333;BME280;11334;36.986;-121.936;2023-03-15T06:50:47;100918.06;;;11.78;100.00
22333;BME280;11334;36.986;-121.936;2023-03-15T06:53:14;100918.38;;;11.75;100.00
22333;BME280;11334;36.986;-121.936;2023-03-15T06:55:40;100916.53;;;11.68;100.00
22333;BME280;11334;36.986;-121.936;2023-03-15T06:58:06;100925.97;;;11.62;100.00
22333;BME280;11334;36.986;-121.936;2023-03-15T07:00:33;100934.38;;;11.58;100.00
22333;BME280;11334;36.986;-121.936;2023-03-15T07:03:00;100935.22;;;11.58;100.00
22333;BME280;11334;36.986;-121.936;2023-03-15T07:05:26;100941.69;;;11.64;100.00
22333;BME280;11334;36.986;-121.936;2023-03-15T07:07:52;100938.69;;;11.59;100.00
22333;BME280;11334;36.986;-121.936;2023-03-15T07:10:19;100938.41;;;11.62;100.00
22333;BME280;11334;36.986;-121.936;2023-03-15T07:12:45;100947.69;;;11.66;100.00
22333;BME280;11334;36.986;-121.936;2023-03-15T07:15:12;100963.13;;;11.62;100.00
22333;BME280;11334;36.986;-121.936;2023-03-15T07:17:38;100956.81;;;11.63;100.00
22333;BME280;11334;36.986;-121.936;2023-03-15T07:20:05;100951.31;;;11.57;100.00
22333;BME280;11334;36.986;-121.936;2023-03-15T07:22:32;100959.28;;;11.57;100.00
22333;BME280;11334;36.986;-121.936;2023-03-15T07:24:59;100961.72;;;11.50;100.00
22333;BME280;11334;36.986;-121.936;2023-03-15T07:27:25;100969.03;;;11.56;99.20
22333;BME280;11334;36.986;-121.936;2023-03-15T07:29:51;100964.03;;;11.53;100.00
22333;BME280;11334;36.986;-121.936;2023-03-15T07:32:20;100965.22;;;11.59;100.00
22333;BME280;11334;36.986;-121.936;2023-03-15T07:34:46;100940.38;;;11.35;99.28
22333;BME280;11334;36.986;-121.936;2023-03-15T07:37:12;100958.38;;;11.48;100.00
22333;BME280;11334;36.986;-121.936;2023-03-15T07:39:38;100955.41;;;11.51;98.57
22333;BME280;11334;36.986;-121.936;2023-03-15T07:42:06;100943.25;;;11.41;100.00
22333;BME280;11334;36.986;-121.936;2023-03-15T07:44:32;100957.69;;;11.46;99.98
22333;BME280;11334;36.986;-121.936;2023-03-15T07:46:59;100970.81;;;11.48;99.54
22333;BME280;11334;36.986;-121.936;2023-03-15T07:49:25;100971.66;;;11.48;99.66
22333;BME280;11334;36.986;-121.936;2023-03-15T07:51:51;100973.09;;;11.43;99.03
22333;BME280;11334;36.986;-121.936;2023-03-15T07:54:17;100970.88;;;11.38;100.00
22333;BME280;11334;36.986;-121.936;2023-03-15T07:56:44;100984.47;;;11.35;98.35
22333;BME280;11334;36.986;-121.936;2023-03-15T07:59:11;100979.53;;;11.40;99.03
22333;BME280;11334;36.986;-121.936;2023-03-15T08:01:37;100982.50;;;11.37;98.35
22333;BME280;11334;36.986;-121.936;2023-03-15T08:04:03;100981.31;;;11.32;100.00
22333;BME280;11334;36.986;-121.936;2023-03-15T08:06:30;100986.13;;;11.36;100.00
22333;BME280;11334;36.986;-121.936;2023-03-15T08:08:56;100983.31;;;11.38;99.94
22333;BME280;11334;36.986;-121.936;2023-03-15T08:11:22;100987.81;;;11.37;100.00
22333;BME280;11334;36.986;-121.936;2023-03-15T08:13:48;100979.25;;;11.43;100.00
22333;BME280;11334;36.986;-121.936;2023-03-15T08:16:15;100982.06;;;11.42;100.00
22333;BME280;11334;36.986;-121.936;2023-03-15T08:18:41;100983.19;;;11.39;100.00
22333;BME280;11334;36.986;-121.936;2023-03-15T08:21:07;100979.53;;;11.40;100.00
22333;BME280;11334;36.986;-121.936;2023-03-15T08:23:33;100983.31;;;11.38;98.29
22333;BME280;11334;36.986;-121.936;2023-03-15T08:25:59;100994.00;;;11.46;97.27
22333;BME280;11334;36.986;-121.936;2023-03-15T08:28:26;100988.72;;;11.46;96.30
22333;BME280;11334;36.986;-121.936;2023-03-15T08:30:52;100992.88;;;11.48;98.33
22333;BME280;11334;36.986;-121.936;2023-03-15T08:33:18;100992.78;;;11.40;98.71
22333;BME280;11334;36.986;-121.936;2023-03-15T08:35:44;100993.66;;;11.41;98.02
22333;BME280;11334;36.986;-121.936;2023-03-15T08:38:11;101001.59;;;11.41;98.70
22333;BME280;11334;36.986;-121.936;2023-03-15T08:40:37;101002.28;;;11.43;99.38
22333;BME280;11334;36.986;-121.936;2023-03-15T08:43:03;100995.69;;;11.47;98.29
22333;BME280;11334;36.986;-121.936;2023-03-15T08:45:29;100994.19;;;11.44;95.33
22333;BME280;11334;36.986;-121.936;2023-03-15T08:47:59;100984.63;;;11.34;97.17
22333;BME280;11334;36.986;-121.936;2023-03-15T08:50:27;100992.78;;;11.40;95.31
22333;BME280;11334;36.986;-121.936;2023-03-15T08:52:54;100997.22;;;11.32;94.29
22333;BME280;11334;36.986;-121.936;2023-03-15T08:55:21;101006.16;;;11.31;94.55
22333;BME280;11334;36.986;-121.936;2023-03-15T08:57:47;101007.78;;;11.24;95.64
22333;BME280;11334;36.986;-121.936;2023-03-15T09:00:14;101019.22;;;11.25;95.65
22333;BME280;11334;36.986;-121.936;2023-03-15T09:02:46;101017.00;;;11.20;95.55
22333;BME280;11334;36.986;-121.936;2023-03-15T09:05:23;101016.31;;;11.18;95.64
22333;BME280;11334;36.986;-121.936;2023-03-15T09:07:50;101012.09;;;11.08;94.61
22333;BME280;11334;36.986;-121.936;2023-03-15T09:10:18;101036.72;;;11.18;95.29
22333;BME280;11334;36.986;-121.936;2023-03-15T09:12:49;101039.00;;;11.13;94.69
22333;BME280;11334;36.986;-121.936;2023-03-15T09:15:17;101036.66;;;11.10;94.63
22333;BME280;11334;36.986;-121.936;2023-03-15T09:17:44;101027.13;;;11.00;94.83
22333;BME280;11334;36.986;-121.936;2023-03-15T09:20:12;101039.63;;;11.07;94.27
22333;BME280;11334;36.986;-121.936;2023-03-15T09:22:49;101042.72;;;11.03;96.89
22333;BME280;11334;36.986;-121.936;2023-03-15T09:25:16;101033.72;;;10.96;96.84
22333;BME280;11334;36.986;-121.936;2023-03-15T09:27:42;101056.66;;;10.87;98.27
22333;BME280;11334;36.986;-121.936;2023-03-15T09:30:09;101047.56;;;10.90;97.73
22333;BME280;11334;36.986;-121.936;2023-03-15T09:32:35;101053.72;;;10.90;98.24
22333;BME280;11334;36.986;-121.936;2023-03-15T09:35:06;101048.84;;;10.86;97.71
22333;BME280;11334;36.986;-121.936;2023-03-15T09:37:34;101046.25;;;10.76;97.47
22333;BME280;11334;36.986;-121.936;2023-03-15T09:40:00;101074.66;;;10.84;97.73
22333;BME280;11334;36.986;-121.936;2023-03-15T09:42:53;101079.88;;;10.76;99.22
22333;BME280;11334;36.986;-121.936;2023-03-15T09:50:56;101093.44;;;10.73;99.82
22333;BME280;11334;36.986;-121.936;2023-03-15T09:53:42;101087.38;;;10.63;100.00
22333;BME280;11334;36.986;-121.936;2023-03-15T09:56:26;101089.63;;;10.58;100.00
22333;BME280;11334;36.986;-121.936;2023-03-15T09:58:57;101099.41;;;10.58;100.00
22333;BME280;11334;36.986;-121.936;2023-03-15T10:01:37;101093.63;;;10.62;100.00
22333;BME280;11334;36.986;-121.936;2023-03-15T10:06:42;101092.41;;;10.57;100.00
22333;BME280;11334;36.986;-121.936;2023-03-15T10:09:15;101107.47;;;10.56;100.00
22333;BME280;11334;36.986;-121.936;2023-03-15T10:12:02;101103.09;;;10.65;98.99
22333;BME280;11334;36.986;-121.936;2023-03-15T10:20:32;101112.09;;;10.54;95.89
22333;BME280;11334;36.986;-121.936;2023-03-15T10:25:30;101105.94;;;10.27;93.56
22333;BME280;11334;36.986;-121.936;2023-03-15T10:28:00;101118.34;;;10.27;92.94
22333;BME280;11334;36.986;-121.936;2023-03-15T10:30:32;101124.25;;;10.21;94.08
22333;BME280;11334;36.986;-121.936;2023-03-15T10:33:15;101122.84;;;10.17;95.63
22333;BME280;11334;36.986;-121.936;2023-03-15T10:35:46;101129.28;;;10.14;95.68
22333;BME280;11334;36.986;-121.936;2023-03-15T10:38:17;101089.06;;;10.02;94.55
22333;BME280;11334;36.986;-121.936;2023-03-15T10:40:52;101111.47;;;10.07;94.45
22333;BME280;11334;36.986;-121.936;2023-03-15T10:46:01;101116.41;;;9.83;93.13
22333;BME280;11334;36.986;-121.936;2023-03-15T10:48:51;101111.09;;;9.83;93.36
22333;BME280;11334;36.986;-121.936;2023-03-15T10:51:30;101112.09;;;9.73;92.53
22333;BME280;11334;36.986;-121.936;2023-03-15T10:54:11;101113.91;;;9.73;95.02
22333;BME280;11334;36.986;-121.936;2023-03-15T10:56:45;101113.47;;;9.77;94.48
22333;BME280;11334;36.986;-121.936;2023-03-15T10:59:18;101111.13;;;9.74;94.95
22333;BME280;11334;36.986;-121.936;2023-03-15T11:01:51;101111.53;;;9.70;94.82
22333;BME280;11334;36.986;-121.936;2023-03-15T11:04:22;101108.78;;;9.71;95.74
22333;BME280;11334;36.986;-121.936;2023-03-15T11:07:01;101111.94;;;9.75;94.67
22333;BME280;11334;36.986;-121.936;2023-03-15T11:09:41;101106.25;;;9.70;96.28
22333;BME280;11334;36.986;-121.936;2023-03-15T11:12:19;101114.47;;;9.67;97.12
22333;BME280;11334;36.986;-121.936;2023-03-15T11:14:48;101120.03;;;9.73;96.65
22333;BME280;11334;36.986;-121.936;2023-03-15T11:17:18;101108.59;;;9.82;94.78
22333;BME280;11334;36.986;-121.936;2023-03-15T11:22:51;101100.53;;;9.83;94.68
22333;BME280;11334;36.986;-121.936;2023-03-15T11:25:20;101096.34;;;9.81;95.03
22333;BME280;11334;36.986;-121.936;2023-03-15T11:27:48;101086.03;;;9.78;93.10
22333;BME280;11334;36.986;-121.936;2023-03-15T11:30:29;101092.44;;;9.76;93.70
22333;BME280;11334;36.986;-121.936;2023-03-15T11:33:04;101083.84;;;9.74;92.60
22333;BME280;11334;36.986;-121.936;2023-03-15T11:35:35;101076.75;;;9.65;93.20
22333;BME280;11334;36.986;-121.936;2023-03-15T11:38:23;101081.06;;;9.66;94.22
22333;BME280;11334;36.986;-121.936;2023-03-15T11:40:53;101083.28;;;9.61;94.06
22333;BME280;11334;36.986;-121.936;2023-03-15T11:43:39;101086.50;;;9.64;94.40
22333;BME280;11334;36.986;-121.936;2023-03-15T11:49:36;101075.09;;;9.64;94.84
22333;BME280;11334;36.986;-121.936;2023-03-15T11:52:06;101066.06;;;9.57;95.71
22333;BME280;11334;36.986;-121.936;2023-03-15T11:54:32;101067.41;;;9.61;95.31
22333;BME280;11334;36.986;-121.936;2023-03-15T11:57:06;101067.41;;;9.61;95.38
22333;BME280;11334;36.986;-121.936;2023-03-15T11:59:52;101032.94;;;9.44;95.22
22333;BME280;11334;36.986;-121.936;2023-03-15T12:04:45;101060.47;;;9.60;93.81
22333;BME280;11334;36.986;-121.936;2023-03-15T12:09:49;101064.25;;;9.57;94.67
22333;BME280;11334;36.986;-121.936;2023-03-15T12:20:36;101062.00;;;9.53;93.10
22333;BME280;11334;36.986;-121.936;2023-03-15T12:26:30;101062.84;;;9.53;94.71
22333;BME280;11334;36.986;-121.936;2023-03-15T12:28:40;101064.66;;;9.53;94.68
22333;BME280;11334;36.986;-121.936;2023-03-15T12:31:12;101058.56;;;9.43;95.09
22333;BME280;11334;36.986;-121.936;2023-03-15T12:33:50;101065.66;;;9.52;94.21
22333;BME280;11334;36.986;-121.936;2023-03-15T12:36:38;101063.56;;;9.46;95.22
22333;BME280;11334;36.986;-121.936;2023-03-15T12:41:48;101070.81;;;9.44;96.06
22333;BME280;11334;36.986;-121.936;2023-03-15T12:52:04;101096.03;;;9.29;98.84
22333;BME280;11334;36.986;-121.936;2023-03-15T12:54:36;101103.09;;;9.29;98.82
22333;BME280;11334;36.986;-121.936;2023-03-15T12:57:05;101096.97;;;9.28;98.82
22333;BME280;11334;36.986;-121.936;2023-03-15T12:59:41;101103.13;;;9.19;100.00
22333;BME280;11334;36.986;-121.936;2023-03-15T13:02:33;101102.00;;;9.22;100.00
22333;BME280;11334;36.986;-121.936;2023-03-15T13:05:29;101097.84;;;9.19;100.00
22333;BME280;11334;36.986;-121.936;2023-03-15T13:08:08;101109.53;;;9.17;100.00
22333;BME280;11334;36.986;-121.936;2023-03-15T13:11:12;101119.22;;;9.16;100.00
22333;BME280;11334;36.986;-121.936;2023-03-15T13:24:21;101109.78;;;9.14;99.18
22333;BME280;11334;36.986;-121.936;2023-03-15T13:29:28;101107.41;;;9.11;99.31
22333;BME280;11334;36.986;-121.936;2023-03-15T13:32:00;101108.69;;;9.07;99.22
22333;BME280;11334;36.986;-121.936;2023-03-15T13:34:29;101107.56;;;9.10;98.34
22333;BME280;11334;36.986;-121.936;2023-03-15T13:36:58;101100.19;;;9.13;98.11